Wetterdaten: Woche 01.05.17 - 07.05.17 (KW18)
Datum Zeit Temp. I. Temp. A. Boden 5 cm Feuchte A. Sonne Luftdruck Regen Wind Sonnenschein
01.05.2017 00:00 22,1 C 9,5 C 10,3 C 58 % 0 % 1011 hPa 0,0 l/m 6,2 km/h (2 Bft) 0,00 h
01.05.2017 01:00 22,0 C 8,8 C 9,7 C 59 % 0 % 1011 hPa 0,0 l/m 8,1 km/h (2 Bft) 0,00 h
01.05.2017 02:00 22,0 C 8,1 C 9,0 C 62 % 0 % 1011 hPa 0,0 l/m 4,3 km/h (1 Bft) 0,00 h
01.05.2017 03:00 22,0 C 6,8 C 7,9 C 66 % 0 % 1010 hPa 0,0 l/m 0,8 km/h (0 Bft) 0,00 h
01.05.2017 04:00 22,0 C 5,1 C 6,7 C 73 % 0 % 1010 hPa 0,0 l/m 0,2 km/h (0 Bft) 0,00 h
01.05.2017 05:00 21,9 C 4,0 C 6,2 C 77 % 0 % 1010 hPa 0,0 l/m 1,4 km/h (1 Bft) 0,00 h
01.05.2017 06:00 22,0 C 4,0 C 6,0 C 78 % 0 % 1010 hPa 0,0 l/m 1,3 km/h (1 Bft) 0,00 h
01.05.2017 07:00 22,0 C 6,6 C 7,0 C 72 % 0 % 1010 hPa 0,0 l/m 1,2 km/h (1 Bft) 0,00 h
01.05.2017 08:00 22,0 C 10,1 C 8,8 C 60 % 0 % 1010 hPa 0,0 l/m 4,7 km/h (1 Bft) 0,00 h
01.05.2017 09:00 22,1 C 12,4 C 10,6 C 54 % 0 % 1011 hPa 0,0 l/m 13,8 km/h (3 Bft) 0,00 h
01.05.2017 10:00 22,1 C 14,2 C 12,2 C 50 % 0 % 1011 hPa 0,0 l/m 16,1 km/h (3 Bft) 0,00 h
01.05.2017 11:00 22,2 C 16,4 C 13,5 C 43 % 0 % 1011 hPa 0,0 l/m 14,4 km/h (3 Bft) 0,00 h
01.05.2017 12:00 22,2 C 17,9 C 14,8 C 39 % 0 % 1011 hPa 0,0 l/m 10,7 km/h (2 Bft) 0,00 h
01.05.2017 13:00 22,3 C 18,4 C 16,3 C 38 % 0 % 1011 hPa 0,0 l/m 5,1 km/h (1 Bft) 0,00 h
01.05.2017 14:00 22,3 C 18,5 C 17,6 C 39 % 0 % 1011 hPa 0,0 l/m 7,3 km/h (2 Bft) 0,00 h
01.05.2017 15:00 22,3 C 18,6 C 17,7 C 40 % 0 % 1010 hPa 0,0 l/m 5,6 km/h (1 Bft) 0,00 h
01.05.2017 16:00 22,5 C 19,0 C 17,9 C 40 % 0 % 1010 hPa 0,0 l/m 6,5 km/h (2 Bft) 0,00 h
01.05.2017 17:00 22,2 C 19,1 C 18,0 C 43 % 0 % 1011 hPa 0,0 l/m 10,3 km/h (2 Bft) 0,00 h
01.05.2017 18:00 22,0 C 15,8 C 16,2 C 58 % 0 % 1011 hPa 0,0 l/m 21,0 km/h (4 Bft) 0,00 h
01.05.2017 19:00 22,0 C 10,7 C 12,6 C 73 % 0 % 1013 hPa 0,0 l/m 22,4 km/h (4 Bft) 0,00 h
01.05.2017 20:00 22,1 C 8,0 C 10,1 C 78 % 0 % 1015 hPa 0,0 l/m 14,2 km/h (3 Bft) 0,00 h
01.05.2017 21:00 22,2 C 5,7 C 8,1 C 79 % 0 % 1016 hPa 0,0 l/m 9,3 km/h (2 Bft) 0,00 h
01.05.2017 22:00 22,1 C 4,0 C 6,7 C 83 % 0 % 1017 hPa 2,1 l/m 3,2 km/h (1 Bft) 0,00 h
01.05.2017 23:00 22,0 C 3,8 C 6,2 C 85 % 0 % 1017 hPa 1,0 l/m 2,7 km/h (1 Bft) 0,00 h
02.05.2017 00:00 22,0 C 3,6 C 5,9 C 85 % 0 % 1017 hPa 0,7 l/m 0,7 km/h (0 Bft) 0,00 h
02.05.2017 01:00 22,0 C 3,3 C 5,4 C 86 % 0 % 1018 hPa 2,4 l/m 1,9 km/h (1 Bft) 0,00 h
02.05.2017 02:00 22,0 C 3,3 C 5,5 C 86 % 0 % 1017 hPa 1,0 l/m 0,0 km/h (0 Bft) 0,00 h
02.05.2017 03:00 22,0 C 3,8 C 5,8 C 87 % 0 % 1017 hPa 0,0 l/m 0,3 km/h (0 Bft) 0,00 h
02.05.2017 04:00 22,0 C 4,3 C 5,9 C 88 % 0 % 1017 hPa 0,0 l/m 0,1 km/h (0 Bft) 0,00 h
02.05.2017 05:00 22,0 C 4,8 C 6,0 C 87 % 0 % 1017 hPa 0,0 l/m 0,5 km/h (0 Bft) 0,00 h
02.05.2017 06:00 22,1 C 5,4 C 6,2 C 86 % 0 % 1017 hPa 0,0 l/m 2,0 km/h (1 Bft) 0,00 h
02.05.2017 07:00 22,1 C 6,2 C 6,9 C 84 % 0 % 1017 hPa 0,0 l/m 3,9 km/h (1 Bft) 0,00 h
02.05.2017 08:00 22,1 C 7,3 C 7,7 C 81 % 0 % 1018 hPa 0,0 l/m 4,5 km/h (1 Bft) 0,00 h
02.05.2017 09:00 22,1 C 8,4 C 8,5 C 77 % 0 % 1018 hPa 0,0 l/m 7,5 km/h (2 Bft) 0,00 h
02.05.2017 10:00 22,1 C 10,3 C 9,9 C 71 % 0 % 1018 hPa 0,0 l/m 10,4 km/h (2 Bft) 0,00 h
02.05.2017 11:00 22,2 C 11,3 C 11,0 C 65 % 0 % 1018 hPa 0,0 l/m 11,7 km/h (2 Bft) 0,00 h
02.05.2017 12:00 22,2 C 13,2 C 12,4 C 58 % 0 % 1018 hPa 0,0 l/m 10,2 km/h (2 Bft) 0,00 h
02.05.2017 13:00 22,3 C 14,3 C 13,8 C 54 % 0 % 1018 hPa 0,0 l/m 9,4 km/h (2 Bft) 0,00 h
02.05.2017 14:00 22,3 C 14,5 C 14,2 C 53 % 0 % 1018 hPa 0,0 l/m 7,1 km/h (2 Bft) 0,00 h
02.05.2017 15:00 22,4 C 15,4 C 15,0 C 47 % 0 % 1018 hPa 0,0 l/m 5,0 km/h (1 Bft) 0,00 h
02.05.2017 16:00 22,4 C 15,9 C 15,1 C 47 % 0 % 1018 hPa 0,0 l/m 5,8 km/h (2 Bft) 0,00 h
02.05.2017 17:00 22,5 C 15,7 C 15,0 C 46 % 0 % 1018 hPa 0,0 l/m 5,4 km/h (1 Bft) 0,00 h
02.05.2017 18:00 22,6 C 15,5 C 14,7 C 46 % 0 % 1018 hPa 0,0 l/m 5,1 km/h (1 Bft) 0,00 h
02.05.2017 19:00 22,6 C 14,7 C 14,0 C 50 % 0 % 1018 hPa 0,0 l/m 1,4 km/h (1 Bft) 0,00 h
02.05.2017 20:00 22,5 C 12,7 C 12,8 C 63 % 0 % 1018 hPa 0,0 l/m 0,0 km/h (0 Bft) 0,00 h
02.05.2017 21:00 22,4 C 10,9 C 11,8 C 69 % 0 % 1018 hPa 0,0 l/m 0,0 km/h (0 Bft) 0,00 h
02.05.2017 22:00 22,3 C 9,6 C 11,0 C 74 % 0 % 1018 hPa 0,0 l/m 0,0 km/h (0 Bft) 0,00 h
02.05.2017 23:00 22,2 C 8,4 C 10,1 C 76 % 0 % 1019 hPa 0,0 l/m 0,7 km/h (0 Bft) 0,00 h
03.05.2017 00:00 22,2 C 7,9 C 9,5 C 75 % 0 % 1018 hPa 0,0 l/m 0,0 km/h (0 Bft) 0,00 h
03.05.2017 01:00 22,1 C 7,3 C 8,8 C 76 % 0 % 1018 hPa 0,0 l/m 0,0 km/h (0 Bft) 0,00 h
03.05.2017 02:00 22,1 C 6,5 C 8,4 C 79 % 0 % 1018 hPa 0,0 l/m 1,0 km/h (0 Bft) 0,00 h
03.05.2017 03:00 22,1 C 6,0 C 7,9 C 80 % 0 % 1018 hPa 0,0 l/m 0,2 km/h (0 Bft) 0,00 h
03.05.2017 04:00 22,1 C 5,6 C 7,6 C 81 % 0 % 1018 hPa 0,0 l/m 0,4 km/h (0 Bft) 0,00 h
03.05.2017 05:00 22,1 C 5,6 C 7,5 C 81 % 0 % 1018 hPa 0,0 l/m 0,2 km/h (0 Bft) 0,00 h
03.05.2017 06:00 22,1 C 5,7 C 7,4 C 82 % 0 % 1018 hPa 0,0 l/m 1,7 km/h (1 Bft) 0,00 h
03.05.2017 07:00 22,0 C 7,9 C 8,4 C 79 % 0 % 1018 hPa 0,0 l/m 0,8 km/h (0 Bft) 0,00 h
03.05.2017 08:00 22,1 C 10,2 C 9,8 C 74 % 0 % 1018 hPa 0,0 l/m 0,8 km/h (0 Bft) 0,00 h
03.05.2017 09:00 22,2 C 11,7 C 11,0 C 71 % 0 % 1018 hPa 0,0 l/m 2,1 km/h (1 Bft) 0,00 h
03.05.2017 10:00 22,2 C 13,1 C 12,2 C 69 % 0 % 1018 hPa 0,0 l/m 5,3 km/h (1 Bft) 0,00 h
03.05.2017 11:00 22,2 C 14,1 C 13,5 C 65 % 0 % 1018 hPa 0,0 l/m 6,5 km/h (2 Bft) 0,00 h
03.05.2017 12:00 22,2 C 14,7 C 14,2 C 65 % 0 % 1018 hPa 0,0 l/m 4,9 km/h (1 Bft) 0,00 h
03.05.2017 13:00 22,3 C 15,2 C 15,0 C 63 % 0 % 1018 hPa 0,0 l/m 4,5 km/h (1 Bft) 0,00 h
03.05.2017 14:00 22,4 C 16,5 C 16,0 C 57 % 0 % 1018 hPa 0,0 l/m 5,4 km/h (1 Bft) 0,00 h
03.05.2017 15:00 22,4 C 17,8 C 17,1 C 53 % 0 % 1017 hPa 0,0 l/m 3,2 km/h (1 Bft) 0,00 h
03.05.2017 16:00 22,5 C 18,5 C 17,5 C 48 % 0 % 1017 hPa 0,0 l/m 4,7 km/h (1 Bft) 0,00 h
03.05.2017 17:00 22,5 C 18,4 C 17,8 C 52 % 0 % 1016 hPa 0,0 l/m 9,9 km/h (2 Bft) 0,00 h
03.05.2017 18:00 22,5 C 17,9 C 17,3 C 51 % 0 % 1016 hPa 0,0 l/m 8,0 km/h (2 Bft) 0,00 h
03.05.2017 19:00 22,5 C 16,6 C 16,3 C 53 % 0 % 1016 hPa 0,0 l/m 4,2 km/h (1 Bft) 0,00 h
03.05.2017 20:00 22,4 C 15,1 C 15,4 C 63 % 0 % 1017 hPa 0,0 l/m 3,0 km/h (1 Bft) 0,00 h
03.05.2017 21:00 22,4 C 14,0 C 14,6 C 68 % 0 % 1017 hPa 1,7 l/m 1,6 km/h (1 Bft) 0,00 h
03.05.2017 22:00 22,3 C 11,8 C 13,1 C 80 % 0 % 1018 hPa 0,0 l/m 0,6 km/h (0 Bft) 0,00 h
03.05.2017 23:00 22,3 C 11,2 C 12,5 C 84 % 0 % 1018 hPa 0,0 l/m 0,2 km/h (0 Bft) 0,00 h
04.05.2017 00:00 22,2 C 10,7 C 12,1 C 85 % 0 % 1017 hPa 0,0 l/m 0,8 km/h (0 Bft) 0,00 h
04.05.2017 01:00 22,2 C 10,0 C 11,6 C 85 % 0 % 1017 hPa 0,0 l/m 0,0 km/h (0 Bft) 0,00 h
04.05.2017 02:00 22,1 C 9,0 C 10,9 C 86 % 0 % 1017 hPa 0,0 l/m 0,1 km/h (0 Bft) 0,00 h
04.05.2017 03:00 22,1 C 7,9 C 10,1 C 86 % 0 % 1017 hPa 0,0 l/m 0,0 km/h (0 Bft) 0,00 h
04.05.2017 04:00 22,1 C 7,7 C 9,9 C 87 % 0 % 1017 hPa 0,0 l/m 0,1 km/h (0 Bft) 0,00 h
04.05.2017 05:00 22,0 C 7,9 C 9,8 C 87 % 0 % 1017 hPa 0,0 l/m 0,3 km/h (0 Bft) 0,00 h
04.05.2017 06:00 22,1 C 7,8 C 9,6 C 87 % 0 % 1017 hPa 0,0 l/m 0,1 km/h (0 Bft) 0,00 h
04.05.2017 07:00 22,1 C 8,3 C 9,8 C 86 % 0 % 1017 hPa 0,0 l/m 1,1 km/h (1 Bft) 0,00 h
04.05.2017 08:00 22,1 C 9,8 C 10,6 C 81 % 0 % 1017 hPa 0,0 l/m 1,9 km/h (1 Bft) 0,00 h
04.05.2017 09:00 22,2 C 11,5 C 11,8 C 78 % 0 % 1016 hPa 0,0 l/m 4,8 km/h (1 Bft) 0,00 h
04.05.2017 10:00 22,2 C 13,5 C 13,0 C 74 % 0 % 1016 hPa 0,0 l/m 5,1 km/h (1 Bft) 0,00 h
04.05.2017 11:00 22,2 C 15,5 C 14,0 C 69 % 0 % 1016 hPa 0,0 l/m 6,5 km/h (2 Bft) 0,00 h
04.05.2017 12:00 22,3 C 16,0 C 14,9 C 65 % 0 % 1016 hPa 0,0 l/m 3,5 km/h (1 Bft) 0,00 h
04.05.2017 13:00 22,2 C 16,6 C 15,9 C 62 % 0 % 1015 hPa 0,0 l/m 4,0 km/h (1 Bft) 0,00 h
04.05.2017 14:00 22,3 C 16,9 C 16,7 C 57 % 0 % 1014 hPa 0,0 l/m 3,0 km/h (1 Bft) 0,00 h
04.05.2017 15:00 22,1 C 15,9 C 16,1 C 60 % 0 % 1014 hPa 0,0 l/m 1,2 km/h (1 Bft) 0,00 h
04.05.2017 16:00 22,1 C 17,1 C 16,6 C 50 % 0 % 1013 hPa 0,0 l/m 5,8 km/h (2 Bft) 0,00 h
04.05.2017 17:00 22,3 C 17,4 C 16,8 C 53 % 0 % 1013 hPa 0,0 l/m 9,4 km/h (2 Bft) 0,00 h
04.05.2017 18:00 22,4 C 16,3 C 16,3 C 58 % 0 % 1013 hPa 0,0 l/m 9,9 km/h (2 Bft) 0,00 h
04.05.2017 19:00 22,4 C 15,4 C 15,7 C 61 % 0 % 1014 hPa 0,0 l/m 5,7 km/h (1 Bft) 0,00 h
04.05.2017 20:00 22,4 C 13,5 C 14,4 C 66 % 0 % 1015 hPa 0,0 l/m 13,9 km/h (3 Bft) 0,00 h
04.05.2017 21:00 22,3 C 12,3 C 13,4 C 73 % 0 % 1016 hPa 0,7 l/m 10,3 km/h (2 Bft) 0,00 h
04.05.2017 22:00 22,2 C 10,9 C 12,5 C 81 % 0 % 1016 hPa 0,7 l/m 0,9 km/h (0 Bft) 0,00 h
04.05.2017 23:00 22,2 C 10,5 C 12,1 C 83 % 0 % 1017 hPa 0,0 l/m 0,3 km/h (0 Bft) 0,00 h
05.05.2017 00:00 22,1 C 10,2 C 11,8 C 83 % 0 % 1017 hPa 0,0 l/m 0,5 km/h (0 Bft) 0,00 h
05.05.2017 01:00 22,1 C 10,0 C 11,4 C 83 % 0 % 1017 hPa 0,0 l/m 2,2 km/h (1 Bft) 0,00 h
05.05.2017 02:00 22,1 C 9,5 C 11,1 C 84 % 0 % 1017 hPa 0,3 l/m 0,5 km/h (0 Bft) 0,00 h
05.05.2017 03:00 22,1 C 9,3 C 10,8 C 82 % 0 % 1018 hPa 0,0 l/m 0,4 km/h (0 Bft) 0,00 h
05.05.2017 04:00 22,1 C 9,2 C 10,6 C 82 % 0 % 1018 hPa 0,0 l/m 2,0 km/h (1 Bft) 0,00 h
05.05.2017 05:00 22,1 C 9,1 C 10,5 C 82 % 0 % 1018 hPa 0,0 l/m 1,5 km/h (1 Bft) 0,00 h
05.05.2017 06:00 22,0 C 9,2 C 10,5 C 83 % 0 % 1018 hPa 0,0 l/m 0,8 km/h (0 Bft) 0,00 h
05.05.2017 07:00 22,1 C 9,4 C 10,5 C 86 % 0 % 1018 hPa 2,4 l/m 0,9 km/h (0 Bft) 0,00 h
05.05.2017 08:00 22,1 C 9,5 C 10,6 C 87 % 0 % 1019 hPa 1,0 l/m 0,4 km/h (0 Bft) 0,00 h
05.05.2017 09:00 22,1 C 9,6 C 10,5 C 87 % 0 % 1019 hPa 0,0 l/m 0,8 km/h (0 Bft) 0,00 h
05.05.2017 10:00 22,1 C 10,1 C 10,9 C 86 % 0 % 1020 hPa 0,0 l/m 2,0 km/h (1 Bft) 0,00 h
05.05.2017 11:00 22,1 C 10,8 C 11,4 C 84 % 0 % 1020 hPa 0,0 l/m 2,5 km/h (1 Bft) 0,00 h
05.05.2017 12:00 22,1 C 12,0 C 12,3 C 81 % 0 % 1020 hPa 0,0 l/m 8,3 km/h (2 Bft) 0,00 h
05.05.2017 13:00 22,2 C 12,0 C 12,4 C 78 % 0 % 1020 hPa 0,0 l/m 6,7 km/h (2 Bft) 0,00 h
05.05.2017 14:00 22,0 C 12,1 C 12,6 C 78 % 0 % 1020 hPa 0,0 l/m 8,5 km/h (2 Bft) 0,00 h
05.05.2017 15:00 22,0 C 13,6 C 13,5 C 73 % 0 % 1020 hPa 0,0 l/m 5,7 km/h (1 Bft) 0,00 h
05.05.2017 16:00 22,1 C 14,8 C 14,3 C 67 % 0 % 1020 hPa 0,0 l/m 7,9 km/h (2 Bft) 0,00 h
05.05.2017 17:00 22,2 C 14,6 C 14,5 C 67 % 0 % 1020 hPa 0,0 l/m 6,3 km/h (2 Bft) 0,00 h
05.05.2017 18:00 21,8 C 14,0 C 14,2 C 67 % 0 % 1020 hPa 0,0 l/m 0,6 km/h (0 Bft) 0,00 h
05.05.2017 19:00 22,1 C 13,9 C 13,9 C 68 % 0 % 1020 hPa 0,0 l/m 0,3 km/h (0 Bft) 0,00 h
05.05.2017 20:00 22,8 C 13,0 C 13,4 C 73 % 0 % 1020 hPa 0,0 l/m 1,2 km/h (1 Bft) 0,00 h
05.05.2017 21:00 22,4 C 11,3 C 12,4 C 79 % 0 % 1020 hPa 0,0 l/m 0,0 km/h (0 Bft) 0,00 h
05.05.2017 22:00 22,8 C 10,0 C 11,5 C 81 % 0 % 1020 hPa 0,0 l/m 0,0 km/h (0 Bft) 0,00 h
05.05.2017 23:00 22,9 C 9,0 C 10,8 C 83 % 0 % 1020 hPa 0,0 l/m 0,0 km/h (0 Bft) 0,00 h
06.05.2017 00:00 22,8 C 8,2 C 10,2 C 85 % 0 % 1020 hPa 0,0 l/m 0,0 km/h (0 Bft) 0,00 h
06.05.2017 01:00 22,6 C 7,5 C 9,7 C 86 % 0 % 1019 hPa 0,0 l/m 0,0 km/h (0 Bft) 0,00 h
06.05.2017 02:00 22,6 C 6,7 C 8,8 C 86 % 0 % 1018 hPa 0,0 l/m 0,0 km/h (0 Bft) 0,00 h
06.05.2017 03:00 22,5 C 6,0 C 8,3 C 86 % 0 % 1018 hPa 0,0 l/m 0,0 km/h (0 Bft) 0,00 h
06.05.2017 04:00 22,4 C 5,4 C 7,9 C 87 % 0 % 1018 hPa 0,0 l/m 0,6 km/h (0 Bft) 0,00 h
06.05.2017 05:00 22,0 C 4,9 C 7,4 C 88 % 0 % 1017 hPa 0,0 l/m 0,0 km/h (0 Bft) 0,00 h
06.05.2017 06:00 22,0 C 4,9 C 7,2 C 88 % 0 % 1017 hPa 0,0 l/m 0,0 km/h (0 Bft) 0,00 h
06.05.2017 07:00 22,0 C 9,4 C 8,3 C 80 % 0 % 1017 hPa 0,0 l/m 1,7 km/h (1 Bft) 0,00 h
06.05.2017 08:00 22,0 C 9,9 C 9,5 C 79 % 0 % 1016 hPa 0,0 l/m 4,3 km/h (1 Bft) 0,00 h
06.05.2017 09:00 22,1 C 12,3 C 10,7 C 76 % 0 % 1016 hPa 0,0 l/m 4,8 km/h (1 Bft) 0,00 h
06.05.2017 10:00 22,1 C 15,7 C 13,0 C 66 % 0 % 1015 hPa 0,0 l/m 19,5 km/h (3 Bft) 0,00 h
06.05.2017 11:00 22,1 C 17,6 C 14,6 C 58 % 0 % 1014 hPa 0,0 l/m 21,1 km/h (4 Bft) 0,00 h
06.05.2017 12:00 22,2 C 19,1 C 16,0 C 52 % 0 % 1014 hPa 0,0 l/m 19,7 km/h (3 Bft) 0,00 h
06.05.2017 13:00 22,2 C 20,3 C 17,5 C 47 % 0 % 1012 hPa 0,0 l/m 17,0 km/h (3 Bft) 0,00 h
06.05.2017 14:00 22,1 C 20,8 C 19,5 C 43 % 0 % 1011 hPa 0,0 l/m 17,8 km/h (3 Bft) 0,00 h
06.05.2017 15:00 22,3 C 21,5 C 20,1 C 36 % 0 % 1011 hPa 0,0 l/m 15,3 km/h (3 Bft) 0,00 h
06.05.2017 16:00 22,3 C 21,6 C 20,4 C 33 % 0 % 1010 hPa 0,0 l/m 13,7 km/h (3 Bft) 0,00 h
06.05.2017 17:00 22,4 C 21,8 C 20,3 C 32 % 0 % 1009 hPa 0,0 l/m 13,3 km/h (3 Bft) 0,00 h
06.05.2017 18:00 22,4 C 21,2 C 19,8 C 37 % 0 % 1008 hPa 0,0 l/m 9,2 km/h (2 Bft) 0,00 h
06.05.2017 19:00 22,4 C 20,4 C 19,0 C 42 % 0 % 1008 hPa 0,0 l/m 2,7 km/h (1 Bft) 0,00 h
06.05.2017 20:00 22,3 C 18,2 C 17,8 C 54 % 0 % 1008 hPa 0,0 l/m 0,1 km/h (0 Bft) 0,00 h
06.05.2017 21:00 22,3 C 16,7 C 16,9 C 62 % 0 % 1008 hPa 0,0 l/m 0,1 km/h (0 Bft) 0,00 h
06.05.2017 22:00 22,3 C 15,7 C 16,3 C 66 % 0 % 1008 hPa 0,0 l/m 0,0 km/h (0 Bft) 0,00 h
06.05.2017 23:00 22,3 C 14,8 C 15,6 C 70 % 0 % 1009 hPa 0,0 l/m 1,8 km/h (1 Bft) 0,00 h
07.05.2017 00:00 22,3 C 13,6 C 14,7 C 74 % 0 % 1009 hPa 0,0 l/m 1,0 km/h (0 Bft) 0,00 h
07.05.2017 01:00 22,2 C 13,3 C 14,4 C 74 % 0 % 1009 hPa 0,0 l/m 4,4 km/h (1 Bft) 0,00 h
07.05.2017 02:00 22,2 C 13,2 C 14,1 C 74 % 0 % 1010 hPa 0,0 l/m 8,5 km/h (2 Bft) 0,00 h
07.05.2017 03:00 22,1 C 13,4 C 14,2 C 74 % 0 % 1011 hPa 0,0 l/m 15,2 km/h (3 Bft) 0,00 h
07.05.2017 04:00 22,1 C 12,5 C 13,5 C 75 % 0 % 1012 hPa 0,0 l/m 14,6 km/h (3 Bft) 0,00 h
07.05.2017 05:00 22,1 C 12,3 C 13,4 C 77 % 0 % 1012 hPa 0,0 l/m 12,5 km/h (3 Bft) 0,00 h
07.05.2017 06:00 22,1 C 12,3 C 13,2 C 77 % 0 % 1012 hPa 0,0 l/m 14,9 km/h (3 Bft) 0,00 h
07.05.2017 07:00 22,1 C 12,1 C 13,1 C 77 % 0 % 1013 hPa 0,0 l/m 11,4 km/h (2 Bft) 0,00 h
07.05.2017 08:00 22,1 C 12,3 C 13,1 C 77 % 0 % 1014 hPa 0,0 l/m 13,3 km/h (3 Bft) 0,00 h
07.05.2017 09:00 22,1 C 12,5 C 13,3 C 77 % 0 % 1015 hPa 0,0 l/m 13,4 km/h (3 Bft) 0,00 h
07.05.2017 10:00 22,1 C 12,9 C 13,5 C 76 % 0 % 1015 hPa 0,0 l/m 11,7 km/h (2 Bft) 0,00 h
07.05.2017 11:00 22,1 C 13,0 C 13,6 C 77 % 0 % 1015 hPa 0,0 l/m 14,2 km/h (3 Bft) 0,00 h
07.05.2017 12:00 22,2 C 13,4 C 13,9 C 76 % 0 % 1015 hPa 0,0 l/m 13,0 km/h (3 Bft) 0,00 h
07.05.2017 13:00 22,2 C 14,5 C 14,8 C 73 % 0 % 1015 hPa 0,0 l/m 16,9 km/h (3 Bft) 0,00 h
07.05.2017 14:00 22,3 C 15,9 C 16,5 C 69 % 0 % 1015 hPa 0,0 l/m 18,9 km/h (3 Bft) 0,00 h
07.05.2017 15:00 22,5 C 16,9 C 17,6 C 65 % 0 % 1014 hPa 0,0 l/m 21,2 km/h (4 Bft) 0,00 h
07.05.2017 16:00 22,5 C 16,4 C 17,3 C 66 % 0 % 1014 hPa 0,0 l/m 23,0 km/h (4 Bft) 0,00 h
07.05.2017 17:00 22,4 C 16,0 C 16,9 C 67 % 0 % 1014 hPa 0,0 l/m 22,8 km/h (4 Bft) 0,00 h
07.05.2017 18:00 22,5 C 15,5 C 16,4 C 68 % 0 % 1014 hPa 0,0 l/m 21,9 km/h (4 Bft) 0,00 h
07.05.2017 19:00 22,6 C 14,5 C 15,5 C 72 % 0 % 1014 hPa 0,0 l/m 14,4 km/h (3 Bft) 0,00 h
07.05.2017 20:00 22,5 C 14,0 C 14,9 C 74 % 0 % 1015 hPa 0,0 l/m 16,3 km/h (3 Bft) 0,00 h
07.05.2017 21:00 22,4 C 13,3 C 14,5 C 76 % 0 % 1015 hPa 1,0 l/m 9,7 km/h (2 Bft) 0,00 h
07.05.2017 22:00 22,4 C 12,1 C 13,5 C 84 % 0 % 1015 hPa 2,1 l/m 8,6 km/h (2 Bft) 0,00 h
07.05.2017 23:00 22,3 C 11,7 C 13,0 C 86 % 0 % 1015 hPa 1,4 l/m 4,8 km/h (1 Bft) 0,00 h
Min-Datum _ 05.05.17 02.05.17 02.05.17 06.05.17 - 06.05.17 - 01.05.17 -
_ Min-Zeit 19:00 01:39 02:00 17:15 - 18:09 - 00:36 -
Minimum _ 21,5 C 3,1 C 5,0 C 29 % - 1008 hPa - 0,0 km/h (0 Bft) -
Max-Datum _ 05.05.17 06.05.17 06.05.17 02.05.17 01.05.17 05.05.17 02.05.17 01.05.17 01.05.17
_ Max-Zeit 23:39 17:12 17:15 03:54 00:00 09:36 01:03 18:39 00:00
Maximum _ 23,2 C 22,0 C 21,2 C 88 % 0 % 1020 hPa 2,4 l/m 33,0 km/h
N (5 Bft)
0,00 h
Durchschnitt _ 22,2 C 12,0 C 12,5 C 70 % #0 min. 1016 hPa #18,5 l/m 5,9 km/h (2 Bft) #0 min.